Terminal Aerodrome Forecast
Issued by NWS Tuscon, AZ

Home | Current Version | Previous Version | Text Only | Print | Product List | Glossary On
Versions: 1 2 3 4 5 6 7 8 9 10 11 12
695
FTUS45 KTWC 122320
TAFTUS
TAF
KTUS 122320Z 1300/1324 VRB03KT P6SM FEW250
     FM130800 14008KT P6SM SCT250
     FM132100 03006KT P6SM SCT250=

USA.gov is the U.S. government's official web portal to all federal, state and local government web resources and services.